createdAt,value
2019-03-22T00:00:27.714Z,5.80
2019-03-22T00:02:55.929Z,5.62
2019-03-22T00:05:24.160Z,5.12
2019-03-22T00:07:52.384Z,6.40
2019-03-22T00:10:20.609Z,6.15
2019-03-22T00:12:48.824Z,5.70
2019-03-22T00:15:36.577Z,6.22
2019-03-22T00:18:04.800Z,7.15
2019-03-22T00:20:52.481Z,6.87
2019-03-22T00:23:20.692Z,6.25
2019-03-22T00:25:48.925Z,6.47
2019-03-22T00:28:17.140Z,6.03
2019-03-22T00:30:45.374Z,6.28
2019-03-22T00:33:13.591Z,6.47
2019-03-22T00:35:41.820Z,6.10
2019-03-22T00:38:10.036Z,6.00
2019-03-22T00:40:38.436Z,6.60
2019-03-22T00:43:06.936Z,6.17
2019-03-22T00:45:35.167Z,5.92
2019-03-22T00:48:03.396Z,6.08
2019-03-22T00:50:31.622Z,6.30
2019-03-22T00:53:00.146Z,6.25
2019-03-22T00:55:28.374Z,6.37
2019-03-22T00:57:56.588Z,6.78
2019-03-22T01:00:24.816Z,6.22
2019-03-22T01:02:53.353Z,6.03
2019-03-22T01:05:21.579Z,6.37
2019-03-22T01:07:49.791Z,6.33
2019-03-22T01:10:18.025Z,6.65
2019-03-22T01:12:46.248Z,6.45
2019-03-22T01:15:14.476Z,6.83
2019-03-22T01:17:42.866Z,6.72
2019-03-22T01:20:11.928Z,6.12
2019-03-22T01:22:40.146Z,6.53
2019-03-22T01:25:09.344Z,6.28
2019-03-22T01:27:40.712Z,6.35
2019-03-22T01:30:15.657Z,6.40
2019-03-22T01:33:03.422Z,6.40
2019-03-22T01:35:31.972Z,6.22
2019-03-22T01:38:00.187Z,6.35
2019-03-22T01:40:28.417Z,6.10
2019-03-22T01:42:56.632Z,6.42
2019-03-22T01:45:24.860Z,6.62
2019-03-22T01:47:53.080Z,6.08
2019-03-22T01:50:21.308Z,6.00
2019-03-22T01:52:49.524Z,6.67
2019-03-22T01:55:17.756Z,6.50
2019-03-22T01:57:53.186Z,6.60
2019-03-22T02:00:17.689Z,6.80
2019-03-22T02:02:46.301Z,6.33
2019-03-22T02:05:14.530Z,6.10
2019-03-22T02:07:42.756Z,6.37
2019-03-22T02:10:11.820Z,5.80
2019-03-22T02:12:40.040Z,6.12
2019-03-22T02:15:11.537Z,6.53
2019-03-22T02:17:39.748Z,6.75
2019-03-22T02:20:09.117Z,6.53
2019-03-22T02:22:37.332Z,6.55
2019-03-22T02:25:06.332Z,5.90
2019-03-22T02:28:03.646Z,6.60
2019-03-22T02:30:24.021Z,6.95
2019-03-22T02:32:52.250Z,6.30
2019-03-22T02:35:28.964Z,5.85
2019-03-22T02:37:50.422Z,6.33
2019-03-22T02:40:18.655Z,6.85
2019-03-22T02:42:46.880Z,6.47
2019-03-22T02:45:34.542Z,6.22
2019-03-22T02:48:02.748Z,6.30
2019-03-22T02:50:31.041Z,6.70
2019-03-22T02:52:59.252Z,6.53
2019-03-22T02:55:27.481Z,6.05
2019-03-22T02:57:55.697Z,6.60
2019-03-22T03:00:23.915Z,6.87
2019-03-22T03:02:52.144Z,6.70
2019-03-22T03:05:20.369Z,7.45
2019-03-22T03:07:48.597Z,7.03
2019-03-22T03:10:16.834Z,6.97
2019-03-22T03:12:45.212Z,6.85
2019-03-22T03:15:34.525Z,7.00
2019-03-22T03:18:02.752Z,6.85
2019-03-22T03:20:30.980Z,7.03
2019-03-22T03:22:59.215Z,6.75
2019-03-22T03:25:27.431Z,6.80
2019-03-22T03:27:55.989Z,6.90
2019-03-22T03:30:24.214Z,7.25
2019-03-22T03:32:52.450Z,7.00
2019-03-22T03:35:20.750Z,6.58
2019-03-22T03:37:48.979Z,6.67
2019-03-22T03:40:18.370Z,6.83
2019-03-22T03:42:46.597Z,7.40
2019-03-22T03:45:41.561Z,6.20
2019-03-22T03:48:10.333Z,7.00
2019-03-22T03:50:38.798Z,6.50
2019-03-22T03:53:07.142Z,7.05
2019-03-22T03:55:35.371Z,6.90
2019-03-22T03:58:03.893Z,6.47
2019-03-22T04:00:32.169Z,6.45
2019-03-22T04:03:00.404Z,6.72
2019-03-22T04:05:28.635Z,6.50
2019-03-22T04:07:56.918Z,6.67
2019-03-22T04:10:25.144Z,7.37
2019-03-22T04:12:53.473Z,6.97
2019-03-22T04:15:21.689Z,6.28
2019-03-22T04:18:02.310Z,6.28
2019-03-22T04:20:30.531Z,6.83
2019-03-22T04:22:58.751Z,6.60
2019-03-22T04:25:26.976Z,6.15
2019-03-22T04:27:55.195Z,6.70
2019-03-22T04:30:23.434Z,6.83
2019-03-22T04:32:51.656Z,6.45
2019-03-22T04:35:19.873Z,6.40
2019-03-22T04:37:48.095Z,6.83
2019-03-22T04:40:19.650Z,7.10
2019-03-22T04:42:47.878Z,6.67
2019-03-22T04:45:16.092Z,6.87
2019-03-22T04:47:46.061Z,6.42
2019-03-22T04:50:14.259Z,6.85
2019-03-22T04:52:42.488Z,6.25
2019-03-22T04:55:30.197Z,6.10
2019-03-22T04:57:58.420Z,5.85
2019-03-22T05:00:26.646Z,6.53
2019-03-22T05:02:55.213Z,6.22
2019-03-22T05:05:23.432Z,6.05
2019-03-22T05:07:51.663Z,6.65
2019-03-22T05:10:19.880Z,5.87
2019-03-22T05:12:48.109Z,6.25
2019-03-22T05:15:16.580Z,7.00
2019-03-22T05:17:45.079Z,6.12
2019-03-22T05:20:13.298Z,6.20
2019-03-22T05:22:41.531Z,6.40
2019-03-22T05:25:09.748Z,6.25
2019-03-22T05:27:38.960Z,6.42
2019-03-22T05:30:08.424Z,6.53
2019-03-22T05:32:56.167Z,6.97
2019-03-22T05:35:24.385Z,6.30
2019-03-22T05:37:52.612Z,6.20
2019-03-22T05:40:20.828Z,6.80
2019-03-22T05:42:49.345Z,7.17
2019-03-22T05:45:17.564Z,7.83
2019-03-22T05:47:45.829Z,6.85
2019-03-22T05:50:14.385Z,6.37
2019-03-22T05:52:42.608Z,7.47
2019-03-22T05:55:10.834Z,9.75
2019-03-22T05:57:39.060Z,9.25
2019-03-22T06:00:07.867Z,7.37
2019-03-22T06:02:36.080Z,7.92
2019-03-22T06:05:06.436Z,6.87
2019-03-22T06:07:36.958Z,6.72
2019-03-22T06:10:06.325Z,7.10
2019-03-22T06:12:34.558Z,7.05
2019-03-22T06:15:03.408Z,6.65
2019-03-22T06:17:31.641Z,7.00
2019-03-22T06:19:59.936Z,7.22
2019-03-22T06:22:28.183Z,6.72
2019-03-22T06:24:56.400Z,7.83
2019-03-22T06:27:24.637Z,8.83
2019-03-22T06:29:54.594Z,8.17
2019-03-22T06:32:23.065Z,7.33
2019-03-22T06:34:51.304Z,11.95
2019-03-22T06:37:19.829Z,24.30
2019-03-22T06:39:48.064Z,7.62
2019-03-22T06:42:16.294Z,6.78
2019-03-22T06:44:44.856Z,6.55
2019-03-22T06:47:13.077Z,7.25
2019-03-22T06:49:41.316Z,7.15
2019-03-22T06:52:09.537Z,7.47
2019-03-22T06:54:37.769Z,7.25
2019-03-22T06:57:05.987Z,7.45
2019-03-22T06:59:34.216Z,7.30
2019-03-22T07:02:02.437Z,7.72
2019-03-22T07:04:30.672Z,7.15
2019-03-22T07:06:58.892Z,7.20
2019-03-22T07:09:27.124Z,7.03
2019-03-22T07:11:55.407Z,7.40
2019-03-22T07:14:23.640Z,7.22
2019-03-22T07:16:51.861Z,7.65
2019-03-22T07:19:20.091Z,7.45
2019-03-22T07:21:48.312Z,7.10
2019-03-22T07:24:16.554Z,6.80
2019-03-22T07:26:44.764Z,7.80
2019-03-22T07:29:12.992Z,7.05
2019-03-22T07:31:41.497Z,7.42
2019-03-22T07:34:09.809Z,7.25
2019-03-22T07:36:38.268Z,7.45
2019-03-22T07:39:08.232Z,7.40
2019-03-22T07:41:36.457Z,8.20
2019-03-22T07:44:04.680Z,8.13
2019-03-22T07:46:32.904Z,7.55
2019-03-22T07:49:01.135Z,8.35
2019-03-22T07:51:29.356Z,7.40
2019-03-22T07:53:57.584Z,7.53
2019-03-22T07:56:25.804Z,7.67
2019-03-22T07:58:54.040Z,7.75
2019-03-22T08:01:22.256Z,7.00
2019-03-22T08:03:50.832Z,7.30
2019-03-22T08:06:19.056Z,7.72
2019-03-22T08:08:47.367Z,7.70
2019-03-22T08:11:15.581Z,7.53
2019-03-22T08:13:43.814Z,6.95
2019-03-22T08:16:12.103Z,7.97
2019-03-22T08:18:40.440Z,7.40
2019-03-22T08:21:08.746Z,8.13
2019-03-22T08:23:36.973Z,7.65
2019-03-22T08:26:05.204Z,7.75
2019-03-22T08:28:33.428Z,8.00
2019-03-22T08:31:01.682Z,7.87
2019-03-22T08:33:29.970Z,6.90
2019-03-22T08:35:58.190Z,8.18
2019-03-22T08:38:26.430Z,7.80
2019-03-22T08:40:54.998Z,7.80
2019-03-22T08:43:23.493Z,8.00
2019-03-22T08:45:51.768Z,7.90
2019-03-22T08:48:20.007Z,7.72
2019-03-22T08:50:48.240Z,7.92
2019-03-22T08:53:35.904Z,7.62
2019-03-22T08:56:04.132Z,7.90
2019-03-22T08:58:32.368Z,8.30
2019-03-22T09:01:00.606Z,8.43
2019-03-22T09:03:28.817Z,8.78
2019-03-22T09:05:57.056Z,8.03
2019-03-22T09:08:25.280Z,8.50
2019-03-22T09:10:53.562Z,8.45
2019-03-22T09:13:21.812Z,8.65
2019-03-22T09:15:50.056Z,9.10
2019-03-22T09:18:38.046Z,8.48
2019-03-22T09:21:06.265Z,8.93
2019-03-22T09:23:34.525Z,8.30
2019-03-22T09:26:02.891Z,8.75
2019-03-22T09:28:31.116Z,9.08
2019-03-22T09:31:09.828Z,8.98
2019-03-22T09:33:29.301Z,8.70
2019-03-22T09:35:57.532Z,9.28
2019-03-22T09:38:28.500Z,9.73
2019-03-22T09:40:55.748Z,9.28
2019-03-22T09:43:24.122Z,9.68
2019-03-22T09:45:52.421Z,9.98
2019-03-22T09:48:20.657Z,10.50
2019-03-22T09:50:49.225Z,9.23
2019-03-22T09:53:17.459Z,14.78
2019-03-22T09:55:46.012Z,9.80
2019-03-22T09:58:14.277Z,10.00
2019-03-22T10:00:42.594Z,10.78
2019-03-22T10:03:10.916Z,10.95
2019-03-22T10:05:39.236Z,11.12
2019-03-22T10:08:07.623Z,10.63
2019-03-22T10:10:35.876Z,10.00
2019-03-22T10:13:04.129Z,10.63
2019-03-22T10:15:32.452Z,11.83
2019-03-22T10:18:00.725Z,11.55
2019-03-22T10:20:29.253Z,11.90
2019-03-22T10:22:57.638Z,12.28
2019-03-22T10:25:26.003Z,11.97
2019-03-22T10:27:54.273Z,12.03
2019-03-22T10:30:22.593Z,12.33
2019-03-22T10:32:50.820Z,11.25
2019-03-22T10:35:26.128Z,11.63
2019-03-22T10:37:49.451Z,11.20
2019-03-22T10:40:17.692Z,12.00
2019-03-22T10:42:46.234Z,11.97
2019-03-22T10:45:14.860Z,12.05
2019-03-22T10:47:43.091Z,12.30
2019-03-22T10:50:11.680Z,12.65
2019-03-22T10:52:40.012Z,12.40
2019-03-22T10:55:28.569Z,11.48
2019-03-22T10:57:40.241Z,12.35
2019-03-22T11:00:11.716Z,12.80
2019-03-22T11:02:39.942Z,13.10
2019-03-22T11:05:08.182Z,13.05
2019-03-22T11:07:36.423Z,13.08
2019-03-22T11:10:11.179Z,13.13
2019-03-22T11:12:39.873Z,14.95
2019-03-22T11:15:12.452Z,14.15
2019-03-22T11:17:40.680Z,12.45
2019-03-22T11:20:11.361Z,12.60
2019-03-22T11:22:39.644Z,13.60
2019-03-22T11:25:08.252Z,13.25
2019-03-22T11:27:36.648Z,13.88
2019-03-22T11:30:07.528Z,13.90
2019-03-22T11:32:36.098Z,13.45
2019-03-22T11:35:06.073Z,13.98
2019-03-22T11:37:34.300Z,14.43
2019-03-22T11:40:02.574Z,14.55
2019-03-22T11:42:30.797Z,14.63
2019-03-22T11:44:59.039Z,16.37
2019-03-22T11:47:27.300Z,13.60
2019-03-22T11:49:55.535Z,15.13
2019-03-22T11:52:23.764Z,14.18
2019-03-22T11:54:51.988Z,13.15
2019-03-22T11:57:20.235Z,14.60
2019-03-22T11:59:48.455Z,13.60
2019-03-22T12:02:22.324Z,14.95
2019-03-22T12:04:46.729Z,15.43
2019-03-22T12:07:15.037Z,15.32
2019-03-22T12:09:43.620Z,14.40
2019-03-22T12:12:12.102Z,12.68
2019-03-22T12:14:40.325Z,14.53
2019-03-22T12:17:08.560Z,14.50
2019-03-22T12:19:36.797Z,13.53
2019-03-22T12:22:05.042Z,15.20
2019-03-22T12:24:33.274Z,14.03
2019-03-22T12:27:01.512Z,13.95
2019-03-22T12:29:29.735Z,14.70
2019-03-22T12:31:57.972Z,13.98
2019-03-22T12:34:26.201Z,13.53
2019-03-22T12:36:54.440Z,13.25
2019-03-22T12:39:22.669Z,13.45
2019-03-22T12:41:50.907Z,13.60
2019-03-22T12:44:19.129Z,14.28
2019-03-22T12:46:49.155Z,14.58
2019-03-22T12:49:17.320Z,14.75
2019-03-22T12:51:45.561Z,14.98
2019-03-22T12:54:13.788Z,13.13
2019-03-22T12:56:42.024Z,13.00
2019-03-22T12:59:10.268Z,14.15
2019-03-22T13:01:38.516Z,14.00
2019-03-22T13:04:06.740Z,16.25
2019-03-22T13:06:34.980Z,15.65
2019-03-22T13:09:03.900Z,13.68
2019-03-22T13:11:32.139Z,14.05
2019-03-22T13:14:00.365Z,13.43
2019-03-22T13:16:28.608Z,13.22
2019-03-22T13:18:56.832Z,13.40
2019-03-22T13:21:25.073Z,13.75
2019-03-22T13:23:53.305Z,13.78
2019-03-22T13:26:21.544Z,13.88
2019-03-22T13:28:49.776Z,13.03
2019-03-22T13:31:18.016Z,12.98
2019-03-22T13:33:46.239Z,12.55
2019-03-22T13:36:14.480Z,13.20
2019-03-22T13:38:42.708Z,13.40
2019-03-22T13:41:10.949Z,18.98
2019-03-22T13:43:39.178Z,14.25
2019-03-22T13:46:07.418Z,15.53
2019-03-22T13:48:35.648Z,14.55
2019-03-22T13:51:03.889Z,14.30
2019-03-22T13:53:32.112Z,15.78
2019-03-22T13:56:00.356Z,15.50
2019-03-22T13:58:28.589Z,15.98
2019-03-22T14:00:56.828Z,15.30
2019-03-22T14:03:25.060Z,15.48
2019-03-22T14:05:53.284Z,14.85
2019-03-22T14:08:21.524Z,14.87
2019-03-22T14:10:49.752Z,14.93
2019-03-22T14:13:17.996Z,16.25
2019-03-22T14:15:46.225Z,15.58
2019-03-22T14:18:14.460Z,16.27
2019-03-22T14:20:42.696Z,15.40
2019-03-22T14:23:10.932Z,15.43
2019-03-22T14:25:39.159Z,15.48
2019-03-22T14:28:07.399Z,15.70
2019-03-22T14:30:35.633Z,14.90
2019-03-22T14:33:12.810Z,15.60
2019-03-22T14:35:34.075Z,16.85
2019-03-22T14:38:02.321Z,17.37
2019-03-22T14:40:30.549Z,16.42
2019-03-22T14:42:58.788Z,16.90
2019-03-22T14:45:27.012Z,16.95
2019-03-22T14:47:55.248Z,16.52
2019-03-22T14:50:23.478Z,17.23
2019-03-22T14:52:53.391Z,17.02
2019-03-22T14:55:21.816Z,15.67
2019-03-22T14:57:52.226Z,17.00
2019-03-22T15:00:20.011Z,17.07
2019-03-22T15:02:48.251Z,15.78
2019-03-22T15:05:16.480Z,16.25
2019-03-22T15:07:44.720Z,16.17
2019-03-22T15:10:12.953Z,16.20
2019-03-22T15:12:41.188Z,11.83
2019-03-22T15:15:23.952Z,16.37
2019-03-22T15:17:53.831Z,10.43
2019-03-22T15:20:26.504Z,14.90
2019-03-22T15:23:13.538Z,15.25
2019-03-22T15:25:43.608Z,15.70
2019-03-22T15:28:22.325Z,15.65
2019-03-22T15:31:08.505Z,16.62
2019-03-22T15:33:55.034Z,15.98
2019-03-22T15:36:41.404Z,15.18
2019-03-22T15:39:17.646Z,15.60
2019-03-22T15:41:46.321Z,15.43
2019-03-22T15:44:14.653Z,16.37
2019-03-22T15:46:42.978Z,15.03
2019-03-22T15:49:11.221Z,15.35
2019-03-22T15:51:39.436Z,15.58
2019-03-22T15:54:07.684Z,15.28
2019-03-22T15:56:35.909Z,15.13
2019-03-22T15:59:04.148Z,15.40
2019-03-22T16:01:32.376Z,15.93
2019-03-22T16:04:00.850Z,15.10
2019-03-22T16:06:29.123Z,14.55
2019-03-22T16:08:57.504Z,15.78
2019-03-22T16:11:25.747Z,15.03
2019-03-22T16:13:54.321Z,13.85
2019-03-22T16:16:22.539Z,14.85
2019-03-22T16:18:50.784Z,13.22
2019-03-22T16:21:19.013Z,15.80
2019-03-22T16:23:47.259Z,14.05
2019-03-22T16:26:15.487Z,14.07
2019-03-22T16:28:43.724Z,14.47
2019-03-22T16:31:11.982Z,14.13
2019-03-22T16:33:40.536Z,13.65
2019-03-22T16:36:08.764Z,13.95
2019-03-22T16:38:37.001Z,14.98
2019-03-22T16:41:05.269Z,16.15
2019-03-22T16:43:33.510Z,15.23
2019-03-22T16:46:01.828Z,14.25
2019-03-22T16:48:30.076Z,13.70
2019-03-22T16:50:58.300Z,13.32
2019-03-22T16:53:26.541Z,12.15
2019-03-22T16:55:54.768Z,12.15
2019-03-22T16:58:23.012Z,12.00
2019-03-22T17:00:51.240Z,11.63
2019-03-22T17:03:19.480Z,11.63
2019-03-22T17:05:47.714Z,12.58
2019-03-22T17:08:15.954Z,13.60
2019-03-22T17:10:44.183Z,11.93
2019-03-22T17:13:12.424Z,12.33
2019-03-22T17:15:40.652Z,11.05
2019-03-22T17:18:08.875Z,11.78
2019-03-22T17:20:37.136Z,11.43
2019-03-22T17:23:05.365Z,12.50
2019-03-22T17:25:33.605Z,12.05
2019-03-22T17:28:02.097Z,11.73
2019-03-22T17:30:30.336Z,11.68
2019-03-22T17:32:58.672Z,11.83
2019-03-22T17:35:26.913Z,10.72
2019-03-22T17:37:55.228Z,10.53
2019-03-22T17:40:23.789Z,10.08
2019-03-22T17:42:52.017Z,10.10
2019-03-22T17:45:20.264Z,10.58
2019-03-22T17:47:48.487Z,10.82
2019-03-22T17:50:16.741Z,11.10
2019-03-22T17:53:04.390Z,10.35
2019-03-22T17:55:32.624Z,10.63
2019-03-22T17:58:00.852Z,11.15
2019-03-22T18:00:29.360Z,11.28
2019-03-22T18:02:57.594Z,11.80
2019-03-22T18:05:25.832Z,11.93
2019-03-22T18:07:54.060Z,11.53
2019-03-22T18:10:22.300Z,11.25
2019-03-22T18:12:50.546Z,12.63
2019-03-22T18:15:18.773Z,13.28
2019-03-22T18:17:47.001Z,12.40
2019-03-22T18:20:15.877Z,13.05
2019-03-22T18:22:44.163Z,14.40
2019-03-22T18:25:12.405Z,14.73
2019-03-22T18:27:40.636Z,13.98
2019-03-22T18:30:10.938Z,14.83
2019-03-22T18:32:39.164Z,16.75
2019-03-22T18:35:07.746Z,20.00
2019-03-22T18:37:35.972Z,20.37
2019-03-22T18:40:06.295Z,18.55
2019-03-22T18:42:34.764Z,17.40
2019-03-22T18:45:03.944Z,16.32
2019-03-22T18:47:32.168Z,16.60
2019-03-22T18:50:00.413Z,15.85
2019-03-22T18:52:28.635Z,15.38
2019-03-22T18:54:56.877Z,15.83
2019-03-22T18:57:25.573Z,15.25
2019-03-22T18:59:54.134Z,15.78
2019-03-22T19:02:22.616Z,17.10
2019-03-22T19:04:50.852Z,17.05
2019-03-22T19:07:19.691Z,17.10
2019-03-22T19:09:47.947Z,16.27
2019-03-22T19:12:16.188Z,16.87
2019-03-22T19:14:44.718Z,15.90
2019-03-22T19:17:12.951Z,16.35
2019-03-22T19:19:41.175Z,17.05
2019-03-22T19:22:09.421Z,16.87
2019-03-22T19:24:38.120Z,17.30
2019-03-22T19:27:06.360Z,16.42
2019-03-22T19:29:34.588Z,17.57
2019-03-22T19:32:02.913Z,17.65
2019-03-22T19:34:31.136Z,17.23
2019-03-22T19:36:59.372Z,16.57
2019-03-22T19:39:27.600Z,17.10
2019-03-22T19:41:55.839Z,16.85
2019-03-22T19:44:24.074Z,16.97
2019-03-22T19:46:52.321Z,16.30
2019-03-22T19:49:20.600Z,16.85
2019-03-22T19:51:48.850Z,58.80
2019-03-22T19:54:17.076Z,54.00
2019-03-22T19:56:45.320Z,42.73
2019-03-22T19:59:13.554Z,36.33
2019-03-22T20:01:41.792Z,29.85
2019-03-22T20:04:10.035Z,19.35
2019-03-22T20:06:38.260Z,17.50
2019-03-22T20:09:07.537Z,18.45
2019-03-22T20:11:35.879Z,18.60
2019-03-22T20:14:04.781Z,19.17
2019-03-22T20:16:33.036Z,18.12
2019-03-22T20:19:01.540Z,17.92
2019-03-22T20:21:29.784Z,18.42
2019-03-22T20:23:57.998Z,19.17
2019-03-22T20:26:26.236Z,17.80
2019-03-22T20:28:54.467Z,18.23
2019-03-22T20:31:22.699Z,17.70
2019-03-22T20:33:51.013Z,17.77
2019-03-22T20:36:19.254Z,18.35
2019-03-22T20:38:47.501Z,17.87
2019-03-22T20:41:16.032Z,17.75
2019-03-22T20:43:44.329Z,17.12
2019-03-22T20:46:12.568Z,16.95
2019-03-22T20:48:40.798Z,19.55
2019-03-22T20:51:09.034Z,18.25
2019-03-22T20:53:37.257Z,18.23
2019-03-22T20:56:05.500Z,18.37
2019-03-22T20:58:33.740Z,17.98
2019-03-22T21:01:01.978Z,18.20
2019-03-22T21:03:30.196Z,18.07
2019-03-22T21:05:58.438Z,17.62
2019-03-22T21:08:26.976Z,17.95
2019-03-22T21:10:55.183Z,18.67
2019-03-22T21:13:23.429Z,17.25
2019-03-22T21:15:51.657Z,17.02
2019-03-22T21:18:19.895Z,18.12
2019-03-22T21:20:48.451Z,17.82
2019-03-22T21:23:16.687Z,16.85
2019-03-22T21:25:45.211Z,16.75
2019-03-22T21:28:13.446Z,17.07
2019-03-22T21:30:41.677Z,17.82
2019-03-22T21:33:09.916Z,17.98
2019-03-22T21:35:38.144Z,16.70
2019-03-22T21:38:11.100Z,18.55
2019-03-22T21:40:36.640Z,19.15
2019-03-22T21:43:04.918Z,19.35
2019-03-22T21:45:33.469Z,18.85
2019-03-22T21:48:01.717Z,18.30
2019-03-22T21:50:29.944Z,18.45
2019-03-22T21:52:58.193Z,19.25
2019-03-22T21:55:26.493Z,18.30
2019-03-22T21:57:55.053Z,19.35
2019-03-22T22:00:23.533Z,18.07
2019-03-22T22:02:51.767Z,18.55
2019-03-22T22:05:19.997Z,18.90
2019-03-22T22:07:48.239Z,18.35
2019-03-22T22:10:16.465Z,18.65
2019-03-22T22:12:44.716Z,18.00
2019-03-22T22:15:12.999Z,18.42
2019-03-22T22:17:41.238Z,19.00
2019-03-22T22:20:09.904Z,18.87
2019-03-22T22:22:38.144Z,19.05
2019-03-22T22:25:06.647Z,17.52
2019-03-22T22:27:35.058Z,18.40
2019-03-22T22:30:05.285Z,18.15
2019-03-22T22:32:33.528Z,18.05
2019-03-22T22:35:01.762Z,17.07
2019-03-22T22:37:30.004Z,16.27
2019-03-22T22:39:58.230Z,16.17
2019-03-22T22:42:26.472Z,16.25
2019-03-22T22:44:54.700Z,16.23
2019-03-22T22:47:22.944Z,16.27
2019-03-22T22:49:51.163Z,17.95
2019-03-22T22:52:19.407Z,17.95
2019-03-22T22:54:47.632Z,18.30
2019-03-22T22:57:15.877Z,18.30
2019-03-22T22:59:44.092Z,18.05
2019-03-22T23:02:12.336Z,16.97
2019-03-22T23:04:40.568Z,17.37
2019-03-22T23:07:10.289Z,17.52
2019-03-22T23:09:38.864Z,17.37
2019-03-22T23:12:07.104Z,17.42
2019-03-22T23:14:35.566Z,17.25
2019-03-22T23:17:03.828Z,17.95
2019-03-22T23:19:32.091Z,17.52
2019-03-22T23:22:00.652Z,15.70
2019-03-22T23:24:28.950Z,16.42
2019-03-22T23:26:57.187Z,16.48
2019-03-22T23:29:25.424Z,16.12
2019-03-22T23:31:53.686Z,16.23
2019-03-22T23:34:21.913Z,17.05
2019-03-22T23:36:50.156Z,16.35
2019-03-22T23:39:18.384Z,15.65
2019-03-22T23:41:46.615Z,15.85
2019-03-22T23:44:14.851Z,16.20
2019-03-22T23:46:43.076Z,17.05
2019-03-22T23:49:11.308Z,17.48
2019-03-22T23:51:39.580Z,15.55
2019-03-22T23:54:07.823Z,16.23
2019-03-22T23:56:36.049Z,15.50
2019-03-22T23:59:04.601Z,16.00
